sensor_id;sensor_type;location;lat;lon;timestamp;P1;durP1;ratioP1;P2;durP2;ratioP2
42538;SDS011;28173;51.376;6.760;2022-07-24T00:00:54;4.40;;;4.00;;
42538;SDS011;28173;51.376;6.760;2022-07-24T00:03:22;8.40;;;4.30;;
42538;SDS011;28173;51.376;6.760;2022-07-24T00:05:54;5.80;;;4.22;;
42538;SDS011;28173;51.376;6.760;2022-07-24T00:08:21;6.93;;;4.68;;
42538;SDS011;28173;51.376;6.760;2022-07-24T00:10:48;5.88;;;4.20;;
42538;SDS011;28173;51.376;6.760;2022-07-24T00:13:15;7.00;;;4.38;;
42538;SDS011;28173;51.376;6.760;2022-07-24T00:15:42;10.52;;;4.25;;
42538;SDS011;28173;51.376;6.760;2022-07-24T00:18:08;8.55;;;4.05;;
42538;SDS011;28173;51.376;6.760;2022-07-24T00:20:35;4.32;;;3.85;;
42538;SDS011;28173;51.376;6.760;2022-07-24T00:23:02;4.95;;;4.30;;
42538;SDS011;28173;51.376;6.760;2022-07-24T00:25:28;6.70;;;3.92;;
42538;SDS011;28173;51.376;6.760;2022-07-24T00:27:55;4.25;;;3.85;;
42538;SDS011;28173;51.376;6.760;2022-07-24T00:30:22;6.72;;;3.92;;
42538;SDS011;28173;51.376;6.760;2022-07-24T00:32:49;4.40;;;4.00;;
42538;SDS011;28173;51.376;6.760;2022-07-24T00:35:15;5.70;;;4.20;;
42538;SDS011;28173;51.376;6.760;2022-07-24T00:37:44;5.22;;;4.60;;
42538;SDS011;28173;51.376;6.760;2022-07-24T00:40:13;6.88;;;4.20;;
42538;SDS011;28173;51.376;6.760;2022-07-24T00:42:44;8.23;;;4.57;;
42538;SDS011;28173;51.376;6.760;2022-07-24T00:45:11;10.40;;;6.25;;
42538;SDS011;28173;51.376;6.760;2022-07-24T00:47:51;9.02;;;5.35;;
42538;SDS011;28173;51.376;6.760;2022-07-24T00:50:22;6.50;;;5.28;;
42538;SDS011;28173;51.376;6.760;2022-07-24T00:52:50;7.05;;;4.60;;
42538;SDS011;28173;51.376;6.760;2022-07-24T00:55:17;5.68;;;4.30;;
42538;SDS011;28173;51.376;6.760;2022-07-24T00:57:43;5.00;;;4.45;;
42538;SDS011;28173;51.376;6.760;2022-07-24T01:00:13;4.70;;;4.05;;
42538;SDS011;28173;51.376;6.760;2022-07-24T01:02:40;7.85;;;4.65;;
42538;SDS011;28173;51.376;6.760;2022-07-24T01:05:08;4.88;;;4.28;;
42538;SDS011;28173;51.376;6.760;2022-07-24T01:07:36;5.45;;;4.45;;
42538;SDS011;28173;51.376;6.760;2022-07-24T01:10:04;7.03;;;4.50;;
42538;SDS011;28173;51.376;6.760;2022-07-24T01:12:32;7.50;;;4.47;;
42538;SDS011;28173;51.376;6.760;2022-07-24T01:14:59;6.07;;;4.45;;
42538;SDS011;28173;51.376;6.760;2022-07-24T01:17:33;7.35;;;4.47;;
42538;SDS011;28173;51.376;6.760;2022-07-24T01:20:00;4.55;;;4.07;;
42538;SDS011;28173;51.376;6.760;2022-07-24T01:22:27;4.95;;;4.38;;
42538;SDS011;28173;51.376;6.760;2022-07-24T01:24:54;7.70;;;4.80;;
42538;SDS011;28173;51.376;6.760;2022-07-24T01:27:22;5.18;;;4.53;;
42538;SDS011;28173;51.376;6.760;2022-07-24T01:29:49;9.18;;;4.85;;
42538;SDS011;28173;51.376;6.760;2022-07-24T01:32:16;6.15;;;4.25;;
42538;SDS011;28173;51.376;6.760;2022-07-24T01:34:42;5.22;;;4.18;;
42538;SDS011;28173;51.376;6.760;2022-07-24T01:37:09;5.13;;;4.32;;
42538;SDS011;28173;51.376;6.760;2022-07-24T01:39:36;5.43;;;4.13;;
42538;SDS011;28173;51.376;6.760;2022-07-24T01:42:03;8.27;;;4.70;;
42538;SDS011;28173;51.376;6.760;2022-07-24T01:44:30;6.07;;;4.25;;
42538;SDS011;28173;51.376;6.760;2022-07-24T01:46:56;7.32;;;4.80;;
42538;SDS011;28173;51.376;6.760;2022-07-24T01:49:23;6.55;;;4.28;;
42538;SDS011;28173;51.376;6.760;2022-07-24T01:51:50;8.23;;;4.35;;
42538;SDS011;28173;51.376;6.760;2022-07-24T01:54:17;7.22;;;4.28;;
42538;SDS011;28173;51.376;6.760;2022-07-24T01:56:43;7.95;;;4.95;;
42538;SDS011;28173;51.376;6.760;2022-07-24T01:59:11;7.60;;;4.55;;
42538;SDS011;28173;51.376;6.760;2022-07-24T02:01:38;5.15;;;4.38;;
42538;SDS011;28173;51.376;6.760;2022-07-24T02:04:05;5.60;;;4.15;;
42538;SDS011;28173;51.376;6.760;2022-07-24T02:06:32;8.38;;;4.68;;
42538;SDS011;28173;51.376;6.760;2022-07-24T02:08:59;8.68;;;4.57;;
42538;SDS011;28173;51.376;6.760;2022-07-24T02:11:26;7.35;;;4.53;;
42538;SDS011;28173;51.376;6.760;2022-07-24T02:13:53;8.20;;;4.65;;
42538;SDS011;28173;51.376;6.760;2022-07-24T02:16:21;7.13;;;4.32;;
42538;SDS011;28173;51.376;6.760;2022-07-24T02:18:48;5.50;;;5.00;;
42538;SDS011;28173;51.376;6.760;2022-07-24T02:21:15;8.82;;;5.20;;
42538;SDS011;28173;51.376;6.760;2022-07-24T02:23:42;5.20;;;4.70;;
42538;SDS011;28173;51.376;6.760;2022-07-24T02:26:08;6.70;;;4.93;;
42538;SDS011;28173;51.376;6.760;2022-07-24T02:28:35;7.40;;;4.85;;
42538;SDS011;28173;51.376;6.760;2022-07-24T02:31:02;8.93;;;4.82;;
42538;SDS011;28173;51.376;6.760;2022-07-24T02:33:29;5.60;;;4.70;;
42538;SDS011;28173;51.376;6.760;2022-07-24T02:35:55;7.50;;;4.88;;
42538;SDS011;28173;51.376;6.760;2022-07-24T02:38:22;7.25;;;4.88;;
42538;SDS011;28173;51.376;6.760;2022-07-24T02:40:49;6.22;;;5.03;;
42538;SDS011;28173;51.376;6.760;2022-07-24T02:43:15;5.93;;;4.57;;
42538;SDS011;28173;51.376;6.760;2022-07-24T02:45:42;6.70;;;4.70;;
42538;SDS011;28173;51.376;6.760;2022-07-24T02:48:15;9.70;;;4.63;;
42538;SDS011;28173;51.376;6.760;2022-07-24T02:50:42;5.18;;;4.68;;
42538;SDS011;28173;51.376;6.760;2022-07-24T02:53:09;9.70;;;5.00;;
42538;SDS011;28173;51.376;6.760;2022-07-24T02:55:36;5.25;;;4.72;;
42538;SDS011;28173;51.376;6.760;2022-07-24T02:58:02;4.95;;;4.45;;
42538;SDS011;28173;51.376;6.760;2022-07-24T03:00:29;7.90;;;4.75;;
42538;SDS011;28173;51.376;6.760;2022-07-24T03:02:56;5.25;;;4.45;;
42538;SDS011;28173;51.376;6.760;2022-07-24T03:05:23;5.95;;;4.57;;
42538;SDS011;28173;51.376;6.760;2022-07-24T03:07:50;6.30;;;4.18;;
42538;SDS011;28173;51.376;6.760;2022-07-24T03:10:17;6.78;;;4.32;;
42538;SDS011;28173;51.376;6.760;2022-07-24T03:12:44;6.13;;;4.13;;
42538;SDS011;28173;51.376;6.760;2022-07-24T03:15:11;6.35;;;4.22;;
42538;SDS011;28173;51.376;6.760;2022-07-24T03:17:39;5.97;;;4.63;;
42538;SDS011;28173;51.376;6.760;2022-07-24T03:20:13;5.00;;;4.53;;
42538;SDS011;28173;51.376;6.760;2022-07-24T03:22:40;7.80;;;4.50;;
42538;SDS011;28173;51.376;6.760;2022-07-24T03:25:06;7.32;;;4.38;;
42538;SDS011;28173;51.376;6.760;2022-07-24T03:27:33;10.50;;;4.85;;
42538;SDS011;28173;51.376;6.760;2022-07-24T03:30:00;6.53;;;4.28;;
42538;SDS011;28173;51.376;6.760;2022-07-24T03:32:27;6.65;;;4.40;;
42538;SDS011;28173;51.376;6.760;2022-07-24T03:34:53;10.52;;;4.70;;
42538;SDS011;28173;51.376;6.760;2022-07-24T03:37:20;5.90;;;4.15;;
42538;SDS011;28173;51.376;6.760;2022-07-24T03:39:47;8.30;;;4.70;;
42538;SDS011;28173;51.376;6.760;2022-07-24T03:42:14;5.40;;;4.63;;
42538;SDS011;28173;51.376;6.760;2022-07-24T03:44:41;6.65;;;4.43;;
42538;SDS011;28173;51.376;6.760;2022-07-24T03:47:07;8.23;;;4.43;;
42538;SDS011;28173;51.376;6.760;2022-07-24T03:49:34;7.72;;;4.82;;
42538;SDS011;28173;51.376;6.760;2022-07-24T03:52:01;6.05;;;5.03;;
42538;SDS011;28173;51.376;6.760;2022-07-24T03:54:28;10.43;;;4.35;;
42538;SDS011;28173;51.376;6.760;2022-07-24T03:56:55;7.05;;;4.28;;
42538;SDS011;28173;51.376;6.760;2022-07-24T03:59:22;6.85;;;4.32;;
42538;SDS011;28173;51.376;6.760;2022-07-24T04:01:48;14.48;;;4.93;;
42538;SDS011;28173;51.376;6.760;2022-07-24T04:04:15;9.23;;;5.03;;
42538;SDS011;28173;51.376;6.760;2022-07-24T04:06:42;11.15;;;5.68;;
42538;SDS011;28173;51.376;6.760;2022-07-24T04:09:09;6.47;;;4.32;;
42538;SDS011;28173;51.376;6.760;2022-07-24T04:11:35;8.35;;;5.00;;
42538;SDS011;28173;51.376;6.760;2022-07-24T04:14:02;10.25;;;4.78;;
42538;SDS011;28173;51.376;6.760;2022-07-24T04:16:29;6.32;;;4.40;;
42538;SDS011;28173;51.376;6.760;2022-07-24T04:18:56;5.43;;;4.82;;
42538;SDS011;28173;51.376;6.760;2022-07-24T04:21:22;8.98;;;4.80;;
42538;SDS011;28173;51.376;6.760;2022-07-24T04:23:49;7.60;;;4.72;;
42538;SDS011;28173;51.376;6.760;2022-07-24T04:26:16;6.47;;;4.55;;
42538;SDS011;28173;51.376;6.760;2022-07-24T04:28:43;6.63;;;4.30;;
42538;SDS011;28173;51.376;6.760;2022-07-24T04:31:10;5.18;;;4.50;;
42538;SDS011;28173;51.376;6.760;2022-07-24T04:33:39;5.72;;;4.57;;
42538;SDS011;28173;51.376;6.760;2022-07-24T04:36:06;6.03;;;4.63;;
42538;SDS011;28173;51.376;6.760;2022-07-24T04:38:36;6.85;;;4.65;;
42538;SDS011;28173;51.376;6.760;2022-07-24T04:41:03;5.22;;;4.38;;
42538;SDS011;28173;51.376;6.760;2022-07-24T04:43:32;5.47;;;4.50;;
42538;SDS011;28173;51.376;6.760;2022-07-24T04:45:59;5.03;;;4.53;;
42538;SDS011;28173;51.376;6.760;2022-07-24T04:48:26;5.40;;;4.47;;
42538;SDS011;28173;51.376;6.760;2022-07-24T04:50:52;5.88;;;5.20;;
42538;SDS011;28173;51.376;6.760;2022-07-24T04:53:19;4.65;;;4.25;;
42538;SDS011;28173;51.376;6.760;2022-07-24T04:55:46;6.03;;;4.43;;
42538;SDS011;28173;51.376;6.760;2022-07-24T04:58:13;6.28;;;4.28;;
42538;SDS011;28173;51.376;6.760;2022-07-24T05:00:40;5.70;;;4.60;;
42538;SDS011;28173;51.376;6.760;2022-07-24T05:03:07;7.53;;;4.40;;
42538;SDS011;28173;51.376;6.760;2022-07-24T05:05:33;5.03;;;4.53;;
42538;SDS011;28173;51.376;6.760;2022-07-24T05:08:00;7.00;;;4.07;;
42538;SDS011;28173;51.376;6.760;2022-07-24T05:10:27;5.22;;;4.10;;
42538;SDS011;28173;51.376;6.760;2022-07-24T05:12:53;4.97;;;4.43;;
42538;SDS011;28173;51.376;6.760;2022-07-24T05:15:25;6.22;;;4.47;;
42538;SDS011;28173;51.376;6.760;2022-07-24T05:17:52;5.57;;;5.00;;
42538;SDS011;28173;51.376;6.760;2022-07-24T05:20:19;5.88;;;4.47;;
42538;SDS011;28173;51.376;6.760;2022-07-24T05:22:46;9.55;;;5.10;;
42538;SDS011;28173;51.376;6.760;2022-07-24T05:25:12;9.35;;;5.07;;
42538;SDS011;28173;51.376;6.760;2022-07-24T05:27:39;5.18;;;4.68;;
42538;SDS011;28173;51.376;6.760;2022-07-24T05:30:06;6.20;;;4.47;;
42538;SDS011;28173;51.376;6.760;2022-07-24T05:32:34;5.88;;;4.50;;
42538;SDS011;28173;51.376;6.760;2022-07-24T05:35:00;4.88;;;4.38;;
42538;SDS011;28173;51.376;6.760;2022-07-24T05:37:27;5.32;;;4.82;;
42538;SDS011;28173;51.376;6.760;2022-07-24T05:39:54;6.18;;;4.65;;
42538;SDS011;28173;51.376;6.760;2022-07-24T05:42:23;5.45;;;4.90;;
42538;SDS011;28173;51.376;6.760;2022-07-24T05:44:50;7.32;;;5.13;;
42538;SDS011;28173;51.376;6.760;2022-07-24T05:47:17;9.88;;;5.65;;
42538;SDS011;28173;51.376;6.760;2022-07-24T05:49:44;9.82;;;6.28;;
42538;SDS011;28173;51.376;6.760;2022-07-24T05:52:11;6.60;;;5.30;;
42538;SDS011;28173;51.376;6.760;2022-07-24T05:54:37;7.65;;;6.15;;
42538;SDS011;28173;51.376;6.760;2022-07-24T05:57:04;7.45;;;6.00;;
42538;SDS011;28173;51.376;6.760;2022-07-24T05:59:31;8.52;;;6.05;;
42538;SDS011;28173;51.376;6.760;2022-07-24T06:01:57;8.88;;;5.85;;
42538;SDS011;28173;51.376;6.760;2022-07-24T06:04:26;8.52;;;5.90;;
42538;SDS011;28173;51.376;6.760;2022-07-24T06:06:53;6.70;;;6.05;;
42538;SDS011;28173;51.376;6.760;2022-07-24T06:09:20;7.05;;;6.35;;
42538;SDS011;28173;51.376;6.760;2022-07-24T06:11:46;7.00;;;5.80;;
42538;SDS011;28173;51.376;6.760;2022-07-24T06:14:13;8.35;;;6.07;;
42538;SDS011;28173;51.376;6.760;2022-07-24T06:16:40;8.85;;;5.93;;
42538;SDS011;28173;51.376;6.760;2022-07-24T06:19:07;10.90;;;5.88;;
42538;SDS011;28173;51.376;6.760;2022-07-24T06:21:34;7.53;;;5.93;;
42538;SDS011;28173;51.376;6.760;2022-07-24T06:24:00;7.82;;;5.95;;
42538;SDS011;28173;51.376;6.760;2022-07-24T06:26:27;6.18;;;5.28;;
42538;SDS011;28173;51.376;6.760;2022-07-24T06:29:00;11.15;;;5.70;;
42538;SDS011;28173;51.376;6.760;2022-07-24T06:31:27;7.03;;;5.43;;
42538;SDS011;28173;51.376;6.760;2022-07-24T06:33:54;9.05;;;5.50;;
42538;SDS011;28173;51.376;6.760;2022-07-24T06:36:21;9.73;;;6.63;;
42538;SDS011;28173;51.376;6.760;2022-07-24T06:38:47;7.20;;;5.72;;
42538;SDS011;28173;51.376;6.760;2022-07-24T06:41:14;7.47;;;5.20;;
42538;SDS011;28173;51.376;6.760;2022-07-24T06:43:41;9.15;;;5.38;;
42538;SDS011;28173;51.376;6.760;2022-07-24T06:46:08;9.95;;;5.80;;
42538;SDS011;28173;51.376;6.760;2022-07-24T06:48:35;9.75;;;5.75;;
42538;SDS011;28173;51.376;6.760;2022-07-24T06:51:01;9.15;;;5.78;;
42538;SDS011;28173;51.376;6.760;2022-07-24T06:53:28;7.65;;;5.82;;
42538;SDS011;28173;51.376;6.760;2022-07-24T06:55:55;7.22;;;5.50;;
42538;SDS011;28173;51.376;6.760;2022-07-24T06:58:22;7.95;;;5.65;;
42538;SDS011;28173;51.376;6.760;2022-07-24T07:00:48;9.45;;;5.53;;
42538;SDS011;28173;51.376;6.760;2022-07-24T07:03:15;8.52;;;5.90;;
42538;SDS011;28173;51.376;6.760;2022-07-24T07:05:43;9.20;;;5.15;;
42538;SDS011;28173;51.376;6.760;2022-07-24T07:08:10;6.60;;;5.10;;
42538;SDS011;28173;51.376;6.760;2022-07-24T07:10:39;10.02;;;5.80;;
42538;SDS011;28173;51.376;6.760;2022-07-24T07:13:06;9.73;;;6.00;;
42538;SDS011;28173;51.376;6.760;2022-07-24T07:15:32;9.30;;;6.05;;
42538;SDS011;28173;51.376;6.760;2022-07-24T07:17:59;8.02;;;6.38;;
42538;SDS011;28173;51.376;6.760;2022-07-24T07:20:26;8.25;;;6.70;;
42538;SDS011;28173;51.376;6.760;2022-07-24T07:22:53;9.32;;;6.50;;
42538;SDS011;28173;51.376;6.760;2022-07-24T07:25:19;9.52;;;6.78;;
42538;SDS011;28173;51.376;6.760;2022-07-24T07:27:46;8.40;;;7.18;;
42538;SDS011;28173;51.376;6.760;2022-07-24T07:30:13;11.77;;;6.85;;
42538;SDS011;28173;51.376;6.760;2022-07-24T07:32:40;10.35;;;6.85;;
42538;SDS011;28173;51.376;6.760;2022-07-24T07:35:07;9.65;;;6.88;;
42538;SDS011;28173;51.376;6.760;2022-07-24T07:37:47;9.15;;;6.72;;
42538;SDS011;28173;51.376;6.760;2022-07-24T07:40:14;14.38;;;6.97;;
42538;SDS011;28173;51.376;6.760;2022-07-24T07:42:44;7.75;;;6.30;;
42538;SDS011;28173;51.376;6.760;2022-07-24T07:45:10;12.13;;;7.05;;
42538;SDS011;28173;51.376;6.760;2022-07-24T07:47:37;8.05;;;6.07;;
42538;SDS011;28173;51.376;6.760;2022-07-24T07:50:04;9.88;;;6.78;;
42538;SDS011;28173;51.376;6.760;2022-07-24T07:52:31;7.72;;;6.28;;
42538;SDS011;28173;51.376;6.760;2022-07-24T07:54:58;9.40;;;7.13;;
42538;SDS011;28173;51.376;6.760;2022-07-24T07:57:25;7.90;;;6.82;;
42538;SDS011;28173;51.376;6.760;2022-07-24T08:00:14;9.05;;;6.03;;
42538;SDS011;28173;51.376;6.760;2022-07-24T08:02:41;8.20;;;6.75;;
42538;SDS011;28173;51.376;6.760;2022-07-24T08:05:08;8.32;;;6.65;;
42538;SDS011;28173;51.376;6.760;2022-07-24T08:07:35;10.68;;;7.20;;
42538;SDS011;28173;51.376;6.760;2022-07-24T08:10:03;10.27;;;8.38;;
42538;SDS011;28173;51.376;6.760;2022-07-24T08:12:36;11.95;;;8.25;;
42538;SDS011;28173;51.376;6.760;2022-07-24T08:15:05;14.27;;;7.70;;
42538;SDS011;28173;51.376;6.760;2022-07-24T08:17:32;11.77;;;8.95;;
42538;SDS011;28173;51.376;6.760;2022-07-24T08:20:01;10.63;;;8.48;;
42538;SDS011;28173;51.376;6.760;2022-07-24T08:22:28;13.32;;;8.05;;
42538;SDS011;28173;51.376;6.760;2022-07-24T08:24:55;11.43;;;8.15;;
42538;SDS011;28173;51.376;6.760;2022-07-24T08:27:22;12.43;;;7.65;;
42538;SDS011;28173;51.376;6.760;2022-07-24T08:29:49;12.57;;;8.52;;
42538;SDS011;28173;51.376;6.760;2022-07-24T08:32:15;9.43;;;7.82;;
42538;SDS011;28173;51.376;6.760;2022-07-24T08:34:42;11.38;;;8.05;;
42538;SDS011;28173;51.376;6.760;2022-07-24T08:37:09;11.10;;;8.38;;
42538;SDS011;28173;51.376;6.760;2022-07-24T08:39:35;9.35;;;8.35;;
42538;SDS011;28173;51.376;6.760;2022-07-24T08:42:02;10.88;;;8.48;;
42538;SDS011;28173;51.376;6.760;2022-07-24T08:44:29;10.48;;;7.55;;
42538;SDS011;28173;51.376;6.760;2022-07-24T08:46:56;9.18;;;8.15;;
42538;SDS011;28173;51.376;6.760;2022-07-24T08:49:23;11.35;;;8.63;;
42538;SDS011;28173;51.376;6.760;2022-07-24T08:51:53;13.05;;;8.20;;
42538;SDS011;28173;51.376;6.760;2022-07-24T08:54:19;14.88;;;9.48;;
42538;SDS011;28173;51.376;6.760;2022-07-24T08:56:47;14.30;;;7.45;;
42538;SDS011;28173;51.376;6.760;2022-07-24T08:59:15;11.30;;;8.02;;
42538;SDS011;28173;51.376;6.760;2022-07-24T09:01:50;10.43;;;7.82;;
42538;SDS011;28173;51.376;6.760;2022-07-24T09:04:30;12.45;;;7.22;;
42538;SDS011;28173;51.376;6.760;2022-07-24T09:07:02;9.80;;;7.63;;
42538;SDS011;28173;51.376;6.760;2022-07-24T09:09:34;14.00;;;7.80;;
42538;SDS011;28173;51.376;6.760;2022-07-24T09:14:35;8.10;;;6.93;;
42538;SDS011;28173;51.376;6.760;2022-07-24T09:17:05;12.15;;;7.05;;
42538;SDS011;28173;51.376;6.760;2022-07-24T09:19:59;11.45;;;8.02;;
42538;SDS011;28173;51.376;6.760;2022-07-24T09:27:39;14.27;;;7.90;;
42538;SDS011;28173;51.376;6.760;2022-07-24T09:30:22;12.75;;;7.57;;
42538;SDS011;28173;51.376;6.760;2022-07-24T09:35:23;12.38;;;7.82;;
42538;SDS011;28173;51.376;6.760;2022-07-24T09:37:56;9.95;;;7.05;;
42538;SDS011;28173;51.376;6.760;2022-07-24T09:40:27;11.85;;;8.35;;
42538;SDS011;28173;51.376;6.760;2022-07-24T09:43:15;9.75;;;7.70;;
42538;SDS011;28173;51.376;6.760;2022-07-24T09:46:09;9.55;;;6.85;;
42538;SDS011;28173;51.376;6.760;2022-07-24T09:48:38;9.75;;;6.90;;
42538;SDS011;28173;51.376;6.760;2022-07-24T09:51:10;8.80;;;7.35;;
42538;SDS011;28173;51.376;6.760;2022-07-24T09:53:40;10.63;;;7.15;;
42538;SDS011;28173;51.376;6.760;2022-07-24T09:56:12;10.07;;;7.47;;
42538;SDS011;28173;51.376;6.760;2022-07-24T09:58:47;9.90;;;7.38;;
42538;SDS011;28173;51.376;6.760;2022-07-24T10:03:46;9.30;;;6.75;;
42538;SDS011;28173;51.376;6.760;2022-07-24T10:06:16;9.10;;;5.43;;
42538;SDS011;28173;51.376;6.760;2022-07-24T10:08:44;12.57;;;6.38;;
42538;SDS011;28173;51.376;6.760;2022-07-24T10:11:12;9.57;;;7.15;;
42538;SDS011;28173;51.376;6.760;2022-07-24T10:13:39;11.65;;;7.18;;
42538;SDS011;28173;51.376;6.760;2022-07-24T10:21:19;8.32;;;6.38;;
42538;SDS011;28173;51.376;6.760;2022-07-24T10:26:37;11.73;;;7.07;;
42538;SDS011;28173;51.376;6.760;2022-07-24T10:29:11;9.82;;;6.57;;
42538;SDS011;28173;51.376;6.760;2022-07-24T10:31:52;8.15;;;5.90;;
42538;SDS011;28173;51.376;6.760;2022-07-24T10:42:30;9.90;;;5.85;;
42538;SDS011;28173;51.376;6.760;2022-07-24T10:45:16;10.25;;;5.93;;
42538;SDS011;28173;51.376;6.760;2022-07-24T10:47:44;11.80;;;5.68;;
42538;SDS011;28173;51.376;6.760;2022-07-24T10:50:12;8.38;;;5.00;;
42538;SDS011;28173;51.376;6.760;2022-07-24T10:52:41;10.35;;;5.55;;
42538;SDS011;28173;51.376;6.760;2022-07-24T11:00:36;7.47;;;5.60;;
42538;SDS011;28173;51.376;6.760;2022-07-24T11:06:37;7.38;;;5.57;;
42538;SDS011;28173;51.376;6.760;2022-07-24T11:08:41;7.28;;;6.35;;
42538;SDS011;28173;51.376;6.760;2022-07-24T11:11:17;9.40;;;6.27;;
42538;SDS011;28173;51.376;6.760;2022-07-24T11:13:50;9.30;;;5.35;;
42538;SDS011;28173;51.376;6.760;2022-07-24T11:16:19;8.30;;;5.38;;
42538;SDS011;28173;51.376;6.760;2022-07-24T11:21:31;12.95;;;6.15;;
42538;SDS011;28173;51.376;6.760;2022-07-24T11:26:49;7.45;;;6.05;;
42538;SDS011;28173;51.376;6.760;2022-07-24T11:31:51;7.65;;;5.50;;
42538;SDS011;28173;51.376;6.760;2022-07-24T11:34:21;7.95;;;5.68;;
42538;SDS011;28173;51.376;6.760;2022-07-24T11:36:49;9.25;;;5.53;;
42538;SDS011;28173;51.376;6.760;2022-07-24T11:39:25;8.38;;;5.45;;
42538;SDS011;28173;51.376;6.760;2022-07-24T11:41:58;7.45;;;5.40;;
42538;SDS011;28173;51.376;6.760;2022-07-24T11:46:58;8.13;;;5.32;;
42538;SDS011;28173;51.376;6.760;2022-07-24T11:49:35;6.68;;;4.90;;
42538;SDS011;28173;51.376;6.760;2022-07-24T11:52:12;5.10;;;4.60;;
42538;SDS011;28173;51.376;6.760;2022-07-24T11:54:53;7.85;;;5.32;;
42538;SDS011;28173;51.376;6.760;2022-07-24T11:57:22;5.57;;;5.00;;
42538;SDS011;28173;51.376;6.760;2022-07-24T12:00:14;5.75;;;4.80;;
42538;SDS011;28173;51.376;6.760;2022-07-24T12:02:46;9.57;;;4.90;;
42538;SDS011;28173;51.376;6.760;2022-07-24T12:05:22;5.82;;;4.90;;
42538;SDS011;28173;51.376;6.760;2022-07-24T12:07:54;9.57;;;5.22;;
42538;SDS011;28173;51.376;6.760;2022-07-24T12:10:23;7.72;;;5.03;;
42538;SDS011;28173;51.376;6.760;2022-07-24T12:12:51;6.22;;;5.05;;
42538;SDS011;28173;51.376;6.760;2022-07-24T12:15:20;5.53;;;4.72;;
42538;SDS011;28173;51.376;6.760;2022-07-24T12:20:29;6.03;;;4.68;;
42538;SDS011;28173;51.376;6.760;2022-07-24T12:22:57;5.43;;;4.72;;
42538;SDS011;28173;51.376;6.760;2022-07-24T12:25:25;7.00;;;4.80;;
42538;SDS011;28173;51.376;6.760;2022-07-24T12:28:04;9.35;;;4.97;;
42538;SDS011;28173;51.376;6.760;2022-07-24T12:30:32;5.25;;;4.25;;
42538;SDS011;28173;51.376;6.760;2022-07-24T12:33:02;13.65;;;5.10;;
42538;SDS011;28173;51.376;6.760;2022-07-24T12:35:34;8.48;;;4.70;;
42538;SDS011;28173;51.376;6.760;2022-07-24T12:38:28;5.72;;;4.20;;
42538;SDS011;28173;51.376;6.760;2022-07-24T12:41:06;5.80;;;5.22;;
42538;SDS011;28173;51.376;6.760;2022-07-24T12:43:50;5.18;;;4.15;;
42538;SDS011;28173;51.376;6.760;2022-07-24T12:46:21;7.55;;;4.32;;
42538;SDS011;28173;51.376;6.760;2022-07-24T12:49:00;8.60;;;4.60;;
42538;SDS011;28173;51.376;6.760;2022-07-24T12:54:33;4.70;;;4.18;;
42538;SDS011;28173;51.376;6.760;2022-07-24T12:57:06;5.93;;;4.82;;
42538;SDS011;28173;51.376;6.760;2022-07-24T12:59:46;9.05;;;4.63;;
42538;SDS011;28173;51.376;6.760;2022-07-24T13:02:18;6.38;;;4.53;;
42538;SDS011;28173;51.376;6.760;2022-07-24T13:04:46;6.05;;;4.45;;
42538;SDS011;28173;51.376;6.760;2022-07-24T13:07:14;6.80;;;4.50;;
42538;SDS011;28173;51.376;6.760;2022-07-24T13:09:43;4.93;;;4.22;;
42538;SDS011;28173;51.376;6.760;2022-07-24T13:12:10;4.75;;;3.83;;
42538;SDS011;28173;51.376;6.760;2022-07-24T13:14:38;6.95;;;3.95;;
42538;SDS011;28173;51.376;6.760;2022-07-24T13:17:06;4.97;;;3.88;;
42538;SDS011;28173;51.376;6.760;2022-07-24T13:19:37;6.22;;;4.00;;
42538;SDS011;28173;51.376;6.760;2022-07-24T13:22:05;4.45;;;3.90;;
42538;SDS011;28173;51.376;6.760;2022-07-24T13:24:32;4.80;;;4.03;;
42538;SDS011;28173;51.376;6.760;2022-07-24T13:26:59;5.75;;;4.20;;
42538;SDS011;28173;51.376;6.760;2022-07-24T13:29:27;7.00;;;4.20;;
42538;SDS011;28173;51.376;6.760;2022-07-24T13:31:54;5.60;;;4.63;;
42538;SDS011;28173;51.376;6.760;2022-07-24T13:34:21;5.55;;;4.57;;
42538;SDS011;28173;51.376;6.760;2022-07-24T13:36:48;6.90;;;3.95;;
42538;SDS011;28173;51.376;6.760;2022-07-24T13:39:15;5.70;;;4.40;;
42538;SDS011;28173;51.376;6.760;2022-07-24T13:41:42;6.70;;;4.40;;
42538;SDS011;28173;51.376;6.760;2022-07-24T13:44:09;5.13;;;3.75;;
42538;SDS011;28173;51.376;6.760;2022-07-24T13:46:35;5.53;;;4.18;;
42538;SDS011;28173;51.376;6.760;2022-07-24T13:49:03;5.22;;;3.90;;
42538;SDS011;28173;51.376;6.760;2022-07-24T13:51:31;6.15;;;4.28;;
42538;SDS011;28173;51.376;6.760;2022-07-24T13:53:57;4.72;;;4.22;;
42538;SDS011;28173;51.376;6.760;2022-07-24T13:56:26;5.47;;;3.90;;
42538;SDS011;28173;51.376;6.760;2022-07-24T13:58:53;6.75;;;4.18;;
42538;SDS011;28173;51.376;6.760;2022-07-24T14:01:20;5.13;;;3.90;;
42538;SDS011;28173;51.376;6.760;2022-07-24T14:03:59;6.68;;;4.00;;
42538;SDS011;28173;51.376;6.760;2022-07-24T14:06:47;4.82;;;4.30;;
42538;SDS011;28173;51.376;6.760;2022-07-24T14:09:13;4.53;;;4.13;;
42538;SDS011;28173;51.376;6.760;2022-07-24T14:11:40;5.07;;;4.07;;
42538;SDS011;28173;51.376;6.760;2022-07-24T14:14:07;5.10;;;4.60;;
42538;SDS011;28173;51.376;6.760;2022-07-24T14:16:34;5.75;;;4.50;;
42538;SDS011;28173;51.376;6.760;2022-07-24T14:19:04;5.68;;;3.90;;
42538;SDS011;28173;51.376;6.760;2022-07-24T14:21:31;5.55;;;3.80;;
42538;SDS011;28173;51.376;6.760;2022-07-24T14:24:00;5.22;;;3.88;;
42538;SDS011;28173;51.376;6.760;2022-07-24T14:26:27;7.00;;;4.10;;
42538;SDS011;28173;51.376;6.760;2022-07-24T14:28:54;7.40;;;3.70;;
42538;SDS011;28173;51.376;6.760;2022-07-24T14:31:21;5.72;;;3.55;;
42538;SDS011;28173;51.376;6.760;2022-07-24T14:33:48;7.90;;;3.90;;
42538;SDS011;28173;51.376;6.760;2022-07-24T14:36:14;7.40;;;3.95;;
42538;SDS011;28173;51.376;6.760;2022-07-24T14:38:41;3.92;;;3.60;;
42538;SDS011;28173;51.376;6.760;2022-07-24T14:41:08;7.25;;;3.97;;
42538;SDS011;28173;51.376;6.760;2022-07-24T14:43:34;3.97;;;3.60;;
42538;SDS011;28173;51.376;6.760;2022-07-24T14:46:01;4.82;;;3.83;;
42538;SDS011;28173;51.376;6.760;2022-07-24T14:48:29;5.30;;;3.72;;
42538;SDS011;28173;51.376;6.760;2022-07-24T14:50:56;4.93;;;3.92;;
42538;SDS011;28173;51.376;6.760;2022-07-24T14:53:22;8.70;;;4.18;;
42538;SDS011;28173;51.376;6.760;2022-07-24T14:55:49;3.95;;;3.38;;
42538;SDS011;28173;51.376;6.760;2022-07-24T14:58:16;4.50;;;4.07;;
42538;SDS011;28173;51.376;6.760;2022-07-24T15:00:42;6.95;;;4.22;;
42538;SDS011;28173;51.376;6.760;2022-07-24T15:03:09;5.78;;;3.17;;
42538;SDS011;28173;51.376;6.760;2022-07-24T15:05:36;4.80;;;4.22;;
42538;SDS011;28173;51.376;6.760;2022-07-24T15:08:03;5.63;;;4.18;;
42538;SDS011;28173;51.376;6.760;2022-07-24T15:10:30;5.97;;;5.30;;
42538;SDS011;28173;51.376;6.760;2022-07-24T15:12:56;4.43;;;4.03;;
42538;SDS011;28173;51.376;6.760;2022-07-24T15:15:23;5.78;;;4.00;;
42538;SDS011;28173;51.376;6.760;2022-07-24T15:17:56;5.05;;;3.38;;
42538;SDS011;28173;51.376;6.760;2022-07-24T15:20:23;5.10;;;3.83;;
42538;SDS011;28173;51.376;6.760;2022-07-24T15:22:49;8.25;;;3.88;;
42538;SDS011;28173;51.376;6.760;2022-07-24T15:25:16;4.32;;;3.70;;
42538;SDS011;28173;51.376;6.760;2022-07-24T15:27:43;5.75;;;3.85;;
42538;SDS011;28173;51.376;6.760;2022-07-24T15:30:13;5.93;;;3.90;;
42538;SDS011;28173;51.376;6.760;2022-07-24T15:32:43;4.68;;;3.88;;
42538;SDS011;28173;51.376;6.760;2022-07-24T15:35:09;6.50;;;3.78;;
42538;SDS011;28173;51.376;6.760;2022-07-24T15:37:36;3.72;;;3.42;;
42538;SDS011;28173;51.376;6.760;2022-07-24T15:40:03;4.43;;;4.03;;
42538;SDS011;28173;51.376;6.760;2022-07-24T15:42:30;5.43;;;3.92;;
42538;SDS011;28173;51.376;6.760;2022-07-24T15:44:57;7.13;;;3.88;;
42538;SDS011;28173;51.376;6.760;2022-07-24T15:47:24;11.27;;;5.25;;